Time;durP1;ratioP1;P1;durP2;ratioP2;P2;SDS_P1;SDS_P2;PMS_P1;PMS_P2;Temp;Humidity;BMP_temperature;BMP_pressure;BME280_temperature;BME280_humidity;BME280_pressure;Samples;Min_cycle;Max_cycle;Signal;HPM_P1;HPM_P2
2021/10/08 00:00:21;;;;;;;7.45;5.57;;;9.70;99.90;;;;;;5037722;28;20049;-67
2021/10/08 00:02:46;;;;;;;5.22;4.43;;;9.70;99.90;;;;;;5031583;28;20372;-67
2021/10/08 00:05:12;;;;;;;5.88;4.90;;;9.70;99.90;;;;;;5042322;28;20056;-67
2021/10/08 00:07:38;;;;;;;7.43;4.95;;;9.70;99.90;;;;;;5046221;28;20486;-67
2021/10/08 00:10:05;;;;;;;4.97;4.25;;;9.70;99.90;;;;;;5053099;28;20044;-67
2021/10/08 00:12:31;;;;;;;7.15;4.88;;;9.70;99.90;;;;;;5054112;28;20060;-67
2021/10/08 00:14:57;;;;;;;15.15;5.45;;;9.70;99.90;;;;;;5044146;28;20061;-67
2021/10/08 00:17:22;;;;;;;5.50;4.85;;;9.60;99.90;;;;;;5034474;28;20547;-67
2021/10/08 00:19:48;;;;;;;6.20;4.93;;;9.60;99.90;;;;;;5051477;28;20033;-68
2021/10/08 00:22:13;;;;;;;7.95;4.97;;;9.60;99.90;;;;;;5035297;28;20481;-67
2021/10/08 00:24:39;;;;;;;7.88;4.53;;;9.50;99.90;;;;;;5025912;28;20177;-67
2021/10/08 00:27:05;;;;;;;4.97;4.50;;;9.50;99.90;;;;;;5054780;28;20524;-67
2021/10/08 00:29:30;;;;;;;6.50;4.80;;;9.40;99.90;;;;;;5053111;28;20441;-68
2021/10/08 00:31:56;;;;;;;5.50;4.57;;;9.40;99.90;;;;;;5055203;28;20115;-67
2021/10/08 00:34:21;;;;;;;5.15;4.13;;;9.30;99.90;;;;;;5043742;28;20527;-67
2021/10/08 00:36:47;;;;;;;5.25;3.72;;;9.30;99.90;;;;;;5039084;28;20064;-67
2021/10/08 00:39:13;;;;;;;8.90;4.72;;;9.20;99.90;;;;;;5037138;28;20059;-67
2021/10/08 00:41:38;;;;;;;6.25;5.15;;;9.20;99.90;;;;;;5034261;28;20647;-67
2021/10/08 00:44:04;;;;;;;6.43;4.75;;;9.10;99.90;;;;;;5038837;28;20025;-67
2021/10/08 00:46:30;;;;;;;8.68;5.20;;;9.00;99.90;;;;;;5040914;28;20089;-67
2021/10/08 00:48:56;;;;;;;6.05;5.00;;;9.00;99.90;;;;;;5042212;28;20033;-67
2021/10/08 00:51:24;;;;;;;6.70;4.53;;;9.00;99.90;;;;;;5053745;28;20496;-67
2021/10/08 00:53:50;;;;;;;6.50;5.43;;;8.90;99.90;;;;;;5054338;28;20108;-67
2021/10/08 00:56:20;;;;;;;6.63;5.30;;;8.80;99.90;;;;;;5048404;28;20120;-67
2021/10/08 00:58:47;;;;;;;6.35;5.68;;;8.70;99.90;;;;;;5048007;28;20492;-67
2021/10/08 01:01:16;;;;;;;7.90;5.63;;;8.60;99.90;;;;;;5037330;28;20378;-67
2021/10/08 01:03:42;;;;;;;7.00;6.13;;;8.60;99.90;;;;;;5050306;28;20029;-67
2021/10/08 01:06:09;;;;;;;8.68;5.95;;;8.50;99.90;;;;;;5047412;28;20527;-67
2021/10/08 01:08:34;;;;;;;7.20;5.95;;;8.50;99.90;;;;;;5049527;28;20038;-67
2021/10/08 01:11:01;;;;;;;7.50;5.97;;;8.40;99.90;;;;;;5034686;28;20112;-67
2021/10/08 01:13:27;;;;;;;8.90;6.30;;;8.40;99.90;;;;;;5043437;28;20037;-67
2021/10/08 01:15:54;;;;;;;7.22;6.18;;;8.30;99.90;;;;;;5036268;28;20033;-67
2021/10/08 01:18:19;;;;;;;6.55;5.82;;;8.30;99.90;;;;;;5053380;28;20051;-67
2021/10/08 01:20:45;;;;;;;8.27;6.03;;;8.20;99.90;;;;;;5071207;28;20469;-67
2021/10/08 01:23:11;;;;;;;8.55;7.00;;;8.20;99.90;;;;;;5074301;28;20485;-67
2021/10/08 01:25:38;;;;;;;8.65;6.85;;;8.10;99.90;;;;;;5054935;28;20044;-67
2021/10/08 01:28:05;;;;;;;10.73;7.43;;;8.10;99.90;;;;;;5053946;28;20036;-66
2021/10/08 01:30:32;;;;;;;8.80;6.82;;;8.10;99.90;;;;;;5050699;28;20056;-67
2021/10/08 01:32:58;;;;;;;12.60;6.95;;;8.00;99.90;;;;;;5045686;28;20372;-68
2021/10/08 01:35:23;;;;;;;9.73;6.90;;;8.00;99.90;;;;;;5047837;28;20025;-67
2021/10/08 01:37:49;;;;;;;7.63;6.82;;;8.00;99.90;;;;;;5043918;28;20045;-67
2021/10/08 01:40:16;;;;;;;7.75;6.70;;;8.00;99.90;;;;;;5048755;28;20060;-67
2021/10/08 01:42:41;;;;;;;10.25;7.22;;;7.90;99.90;;;;;;5053065;28;20469;-67
2021/10/08 01:45:09;;;;;;;7.78;6.78;;;7.80;99.90;;;;;;5048527;28;20033;-67
2021/10/08 01:47:35;;;;;;;9.50;6.95;;;7.80;99.90;;;;;;5052759;28;20032;-67
2021/10/08 01:50:01;;;;;;;7.32;6.63;;;7.70;99.90;;;;;;5036378;28;20496;-68
2021/10/08 01:52:26;;;;;;;7.07;6.38;;;7.70;99.90;;;;;;5032714;28;20116;-67
2021/10/08 01:54:52;;;;;;;8.77;7.10;;;7.60;99.90;;;;;;5035989;28;20044;-67
2021/10/08 01:57:18;;;;;;;9.18;7.32;;;7.50;99.90;;;;;;5053368;28;20099;-67
2021/10/08 01:59:44;;;;;;;8.77;6.97;;;7.40;99.90;;;;;;5038369;28;20025;-67
2021/10/08 02:02:10;;;;;;;10.63;8.85;;;7.40;99.90;;;;;;5049328;28;20025;-67
2021/10/08 02:04:35;;;;;;;12.43;8.98;;;7.40;99.90;;;;;;5042489;28;20084;-67
2021/10/08 02:07:01;;;;;;;14.60;9.07;;;7.30;99.90;;;;;;5052060;28;20057;-66
2021/10/08 02:09:27;;;;;;;13.82;9.07;;;7.30;99.90;;;;;;5042310;28;20035;-67
2021/10/08 02:11:52;;;;;;;12.25;8.45;;;7.30;99.90;;;;;;5049172;28;20040;-66
2021/10/08 02:14:18;;;;;;;10.43;8.77;;;7.30;99.90;;;;;;5047090;28;20072;-67
2021/10/08 02:16:44;;;;;;;15.18;9.15;;;7.30;99.90;;;;;;5043025;28;20214;-67
2021/10/08 02:19:10;;;;;;;11.70;9.30;;;7.30;99.90;;;;;;5054343;28;20389;-66
2021/10/08 02:21:35;;;;;;;11.50;8.93;;;7.30;99.90;;;;;;5072242;28;20032;-67
2021/10/08 02:24:01;;;;;;;13.70;9.55;;;7.20;99.90;;;;;;5046544;28;20029;-67
2021/10/08 02:26:27;;;;;;;15.27;9.82;;;7.20;99.90;;;;;;5051961;28;20032;-67
2021/10/08 02:28:53;;;;;;;15.15;9.18;;;7.20;99.90;;;;;;5046231;28;20033;-67
2021/10/08 02:31:19;;;;;;;13.00;10.45;;;7.20;99.90;;;;;;5050320;28;20397;-66
2021/10/08 02:33:45;;;;;;;11.10;9.88;;;7.10;99.90;;;;;;5040002;28;20673;-67
2021/10/08 02:36:11;;;;;;;19.25;12.20;;;7.10;99.90;;;;;;5033066;28;20108;-66
2021/10/08 02:38:38;;;;;;;19.52;12.52;;;7.20;99.90;;;;;;5037906;28;20037;-67
2021/10/08 02:41:04;;;;;;;16.48;11.73;;;7.20;99.90;;;;;;5036697;28;20021;-67
2021/10/08 02:43:30;;;;;;;15.93;11.32;;;7.20;99.90;;;;;;5040712;28;20021;-67
2021/10/08 02:45:56;;;;;;;14.88;11.30;;;7.20;99.90;;;;;;5044024;28;20489;-66
2021/10/08 02:48:21;;;;;;;16.92;12.20;;;7.20;99.90;;;;;;5052834;28;20041;-67
2021/10/08 02:50:47;;;;;;;18.83;11.80;;;7.20;99.90;;;;;;5040845;28;20457;-66
2021/10/08 02:53:13;;;;;;;12.60;10.23;;;7.20;99.90;;;;;;5047371;28;20471;-66
2021/10/08 02:55:39;;;;;;;15.32;11.35;;;7.20;99.90;;;;;;5045551;28;20465;-67
2021/10/08 02:58:05;;;;;;;13.85;10.90;;;7.10;99.90;;;;;;5051169;28;20037;-67
2021/10/08 03:00:30;;;;;;;11.45;10.25;;;7.10;99.90;;;;;;5050954;28;20032;-67
2021/10/08 03:02:56;;;;;;;12.80;10.80;;;7.10;99.90;;;;;;5050586;28;20024;-67
2021/10/08 03:05:22;;;;;;;16.98;11.20;;;7.00;99.90;;;;;;5037521;28;20394;-67
2021/10/08 03:07:47;;;;;;;15.73;11.23;;;7.00;99.90;;;;;;5031274;28;20053;-67
2021/10/08 03:10:15;;;;;;;16.02;12.02;;;6.90;99.90;;;;;;5042862;28;20029;-67
2021/10/08 03:12:41;;;;;;;18.85;13.80;;;6.90;99.90;;;;;;5046806;28;20071;-67
2021/10/08 03:15:08;;;;;;;20.33;14.25;;;6.90;99.90;;;;;;5044833;28;20033;-67
2021/10/08 03:17:34;;;;;;;19.20;14.07;;;6.90;99.90;;;;;;5046330;28;20477;-66
2021/10/08 03:20:00;;;;;;;20.27;14.38;;;6.90;99.90;;;;;;5063984;28;20118;-67
2021/10/08 03:22:27;;;;;;;23.15;14.73;;;7.00;99.90;;;;;;5050396;28;20052;-67
2021/10/08 03:24:53;;;;;;;18.20;13.43;;;7.00;99.90;;;;;;5043097;28;20044;-67
2021/10/08 03:27:19;;;;;;;16.85;12.35;;;7.00;99.90;;;;;;5036020;28;20026;-66
2021/10/08 03:29:44;;;;;;;18.67;12.40;;;7.00;99.90;;;;;;5021677;28;20571;-67
2021/10/08 03:32:10;;;;;;;17.55;13.55;;;6.90;99.90;;;;;;5051693;28;20470;-67
2021/10/08 03:34:35;;;;;;;16.85;12.73;;;6.90;99.90;;;;;;5033581;28;20029;-67
2021/10/08 03:37:05;;;;;;;16.58;12.85;;;6.90;99.90;;;;;;5013579;28;20037;-67
2021/10/08 03:39:35;;;;;;;16.23;12.70;;;6.80;99.90;;;;;;5034548;28;20041;-67
2021/10/08 03:42:01;;;;;;;19.13;13.02;;;6.80;99.90;;;;;;5032241;28;20474;-67
2021/10/08 03:44:34;;;;;;;18.95;14.00;;;6.70;99.90;;;;;;5030908;28;20033;-66
2021/10/08 03:47:01;;;;;;;20.08;14.05;;;6.70;99.90;;;;;;5051911;28;20025;-67
2021/10/08 03:49:27;;;;;;;22.98;15.02;;;6.60;99.90;;;;;;5049204;28;20029;-67
2021/10/08 03:51:53;;;;;;;22.50;15.95;;;6.60;99.90;;;;;;5049925;28;20025;-67
2021/10/08 03:54:22;;;;;;;21.65;15.73;;;6.70;99.90;;;;;;5037671;28;20040;-67
2021/10/08 03:56:48;;;;;;;22.10;15.20;;;6.60;99.90;;;;;;5042337;28;20110;-66
2021/10/08 03:59:14;;;;;;;23.80;16.25;;;6.70;99.90;;;;;;5048382;28;20124;-67
2021/10/08 04:01:40;;;;;;;23.65;16.05;;;6.70;99.90;;;;;;5050029;28;20107;-67
2021/10/08 04:04:07;;;;;;;19.30;14.50;;;6.70;99.90;;;;;;5037058;28;20462;-66
2021/10/08 04:06:34;;;;;;;21.30;14.75;;;6.70;99.90;;;;;;5050410;28;20103;-67
2021/10/08 04:09:03;;;;;;;17.08;12.93;;;6.60;99.90;;;;;;5048824;28;20055;-67
2021/10/08 04:11:28;;;;;;;23.00;16.25;;;6.60;99.90;;;;;;5030547;28;20036;-66
2021/10/08 04:13:54;;;;;;;23.58;17.05;;;6.60;99.90;;;;;;5037015;28;20029;-67
2021/10/08 04:16:22;;;;;;;22.80;17.05;;;6.60;99.90;;;;;;5040372;28;20025;-67
2021/10/08 04:18:47;;;;;;;24.08;16.30;;;6.60;99.90;;;;;;5036950;28;20122;-66
2021/10/08 04:21:14;;;;;;;20.15;16.20;;;6.60;99.90;;;;;;5071246;28;20052;-67
2021/10/08 04:23:39;;;;;;;26.23;16.10;;;6.60;99.90;;;;;;5031164;28;20398;-67
2021/10/08 04:26:06;;;;;;;23.73;16.17;;;6.60;99.90;;;;;;5051030;28;20112;-67
2021/10/08 04:28:31;;;;;;;22.98;15.93;;;6.60;99.90;;;;;;5057464;28;20082;-66
2021/10/08 04:30:57;;;;;;;24.45;16.85;;;6.60;99.90;;;;;;5058840;28;20029;-67
2021/10/08 04:33:25;;;;;;;25.10;17.98;;;6.60;99.90;;;;;;5059538;28;20049;-68
2021/10/08 04:35:52;;;;;;;25.08;16.88;;;6.60;99.90;;;;;;5060818;28;20112;-68
2021/10/08 04:38:18;;;;;;;25.70;17.00;;;6.60;99.90;;;;;;5059097;28;20064;-67
2021/10/08 04:40:45;;;;;;;21.52;15.50;;;6.60;99.90;;;;;;5058436;28;20474;-67
2021/10/08 04:43:11;;;;;;;23.05;16.13;;;6.70;99.90;;;;;;5059111;28;20113;-67
2021/10/08 04:45:37;;;;;;;20.15;15.55;;;6.60;99.90;;;;;;5060233;28;20517;-67
2021/10/08 04:48:03;;;;;;;24.40;16.80;;;6.60;99.90;;;;;;5027444;28;20112;-67
2021/10/08 04:50:29;;;;;;;21.45;15.48;;;6.60;99.90;;;;;;5057126;28;20032;-68
2021/10/08 04:52:55;;;;;;;24.15;16.40;;;6.60;99.90;;;;;;5048422;28;20029;-67
2021/10/08 04:55:20;;;;;;;20.13;15.25;;;6.60;99.90;;;;;;5060241;28;20025;-67
2021/10/08 04:57:46;;;;;;;21.90;15.85;;;6.60;99.90;;;;;;5062112;28;20114;-68
2021/10/08 05:00:12;;;;;;;23.05;16.90;;;6.60;99.90;;;;;;5065047;28;20112;-67
2021/10/08 05:02:38;;;;;;;23.52;16.55;;;6.60;99.90;;;;;;5060688;28;20428;-67
2021/10/08 05:05:04;;;;;;;22.38;15.60;;;6.60;99.90;;;;;;5059941;28;20043;-67
2021/10/08 05:07:30;;;;;;;24.30;17.05;;;6.60;99.90;;;;;;5062332;28;20052;-67
2021/10/08 05:09:56;;;;;;;20.20;15.60;;;6.60;99.90;;;;;;5056862;28;20029;-68
2021/10/08 05:12:25;;;;;;;26.45;15.23;;;6.60;99.90;;;;;;5062428;28;20032;-68
2021/10/08 05:14:52;;;;;;;23.50;16.83;;;6.60;99.90;;;;;;5043325;28;20469;-67
2021/10/08 05:17:18;;;;;;;28.83;16.63;;;6.60;99.90;;;;;;5033549;28;20084;-67
2021/10/08 05:19:43;;;;;;;21.30;16.08;;;6.60;99.90;;;;;;5055254;28;20033;-67
2021/10/08 05:22:09;;;;;;;23.88;16.42;;;6.60;99.90;;;;;;5054481;28;20066;-68
2021/10/08 05:24:36;;;;;;;24.23;15.90;;;6.70;99.90;;;;;;5038375;28;20119;-68
2021/10/08 05:27:01;;;;;;;18.60;14.65;;;6.70;99.90;;;;;;5056411;28;20024;-67
2021/10/08 05:29:27;;;;;;;22.33;15.13;;;6.70;99.90;;;;;;5052422;28;20051;-67
2021/10/08 05:31:53;;;;;;;20.10;14.75;;;6.60;99.90;;;;;;5048207;28;20071;-66
2021/10/08 05:34:19;;;;;;;23.13;15.15;;;6.60;99.90;;;;;;5048414;28;20078;-68
2021/10/08 05:36:49;;;;;;;19.98;13.07;;;6.60;99.90;;;;;;5035254;28;20038;-67
2021/10/08 05:39:18;;;;;;;19.60;13.73;;;6.50;99.90;;;;;;5041630;28;20052;-68
2021/10/08 05:41:43;;;;;;;26.25;16.42;;;6.50;99.90;;;;;;5053368;28;20025;-67
2021/10/08 05:44:09;;;;;;;19.50;13.95;;;6.50;99.90;;;;;;5038968;28;20030;-68
2021/10/08 05:46:35;;;;;;;21.70;15.75;;;6.40;99.90;;;;;;5033488;28;20044;-65
2021/10/08 05:49:00;;;;;;;22.58;16.08;;;6.40;99.90;;;;;;5041121;28;20033;-66
2021/10/08 05:51:26;;;;;;;24.35;15.77;;;6.50;99.90;;;;;;5054047;28;20025;-66
2021/10/08 05:53:52;;;;;;;24.65;16.42;;;6.50;99.90;;;;;;5039587;28;20389;-67
2021/10/08 05:56:18;;;;;;;20.80;15.88;;;6.50;99.90;;;;;;5034863;28;20040;-66
2021/10/08 05:58:43;;;;;;;22.75;17.52;;;6.50;99.90;;;;;;5047670;28;20052;-66
2021/10/08 06:01:09;;;;;;;22.17;16.35;;;6.50;99.90;;;;;;5033152;28;20057;-68
2021/10/08 06:03:36;;;;;;;24.98;15.65;;;6.60;99.90;;;;;;5047111;28;20033;-67
2021/10/08 06:06:01;;;;;;;26.40;17.58;;;6.70;99.90;;;;;;5034812;28;20031;-68
2021/10/08 06:08:27;;;;;;;22.77;16.25;;;6.70;99.90;;;;;;5046347;28;20034;-68
2021/10/08 06:10:53;;;;;;;27.00;16.70;;;6.70;99.90;;;;;;5033653;28;20034;-67
2021/10/08 06:13:18;;;;;;;24.58;16.55;;;6.80;99.90;;;;;;5043406;28;20426;-67
2021/10/08 06:15:44;;;;;;;20.52;16.23;;;6.80;99.90;;;;;;5039279;28;20110;-67
2021/10/08 06:18:09;;;;;;;30.00;16.88;;;6.90;99.90;;;;;;5053574;28;20090;-67
2021/10/08 06:20:35;;;;;;;25.13;16.20;;;6.90;99.90;;;;;;5068481;28;20069;-67
2021/10/08 06:23:01;;;;;;;21.05;15.93;;;6.90;99.90;;;;;;5064282;28;20038;-67
2021/10/08 06:25:26;;;;;;;21.52;15.18;;;6.90;99.90;;;;;;5039580;28;20033;-68
2021/10/08 06:27:52;;;;;;;22.63;15.68;;;7.00;99.90;;;;;;5032563;28;20029;-67
2021/10/08 06:30:19;;;;;;;24.73;16.45;;;7.00;99.90;;;;;;5047633;28;20036;-69
2021/10/08 06:32:45;;;;;;;23.33;16.15;;;7.10;99.90;;;;;;5045605;28;20034;-69
2021/10/08 06:35:11;;;;;;;20.52;16.38;;;7.10;99.90;;;;;;5037496;28;20024;-69
2021/10/08 06:37:37;;;;;;;22.58;15.55;;;7.20;99.90;;;;;;5051422;28;20044;-69
2021/10/08 06:40:04;;;;;;;19.65;15.13;;;7.30;99.90;;;;;;5051011;28;20029;-69
2021/10/08 06:42:29;;;;;;;19.85;16.38;;;7.40;99.90;;;;;;5047038;28;20042;-69
2021/10/08 06:44:57;;;;;;;22.60;16.88;;;7.40;99.90;;;;;;5036063;28;20055;-69
2021/10/08 06:47:24;;;;;;;16.27;13.90;;;7.50;99.90;;;;;;5032269;28;20036;-70
2021/10/08 06:49:50;;;;;;;20.40;14.93;;;7.60;99.90;;;;;;5032126;28;20124;-69
2021/10/08 06:52:15;;;;;;;18.08;14.02;;;7.70;99.90;;;;;;5050775;28;20045;-67
2021/10/08 06:54:41;;;;;;;18.60;13.57;;;7.70;99.90;;;;;;5040012;28;20082;-66
2021/10/08 06:57:07;;;;;;;21.15;15.45;;;7.80;99.90;;;;;;5035646;28;20104;-67
2021/10/08 06:59:33;;;;;;;17.80;14.35;;;7.90;99.90;;;;;;5032473;28;20091;-67
2021/10/08 07:01:59;;;;;;;19.63;14.52;;;8.00;99.90;;;;;;5031812;28;20064;-67
2021/10/08 07:04:25;;;;;;;17.27;14.32;;;8.10;99.90;;;;;;5016123;28;20056;-67
2021/10/08 07:06:51;;;;;;;18.73;14.75;;;8.20;99.90;;;;;;5044976;28;20076;-66
2021/10/08 07:09:17;;;;;;;17.30;14.25;;;8.30;99.90;;;;;;5051741;28;20390;-67
2021/10/08 07:11:43;;;;;;;17.60;13.73;;;8.40;99.90;;;;;;5050880;28;20052;-67
2021/10/08 07:14:08;;;;;;;21.02;14.57;;;8.40;99.90;;;;;;5050086;28;20029;-67
2021/10/08 07:16:34;;;;;;;17.35;13.90;;;8.60;99.90;;;;;;5050662;28;20447;-66
2021/10/08 07:19:12;;;;;;;16.30;13.38;;;8.60;99.90;;;;;;5045386;28;20140;-67
2021/10/08 07:21:39;;;;;;;22.65;13.57;;;8.80;99.90;;;;;;5031029;28;20488;-66
2021/10/08 07:24:05;;;;;;;15.82;13.32;;;8.90;99.90;;;;;;5035197;28;20098;-67
2021/10/08 07:26:32;;;;;;;16.42;12.30;;;9.00;99.90;;;;;;5031404;28;20033;-66
2021/10/08 07:28:58;;;;;;;16.25;12.60;;;9.10;99.90;;;;;;5038376;28;20375;-68
2021/10/08 07:31:24;;;;;;;16.58;12.77;;;9.20;99.90;;;;;;5051403;28;20036;-65
2021/10/08 07:33:49;;;;;;;15.30;11.57;;;9.30;99.90;;;;;;5037320;28;20033;-66
2021/10/08 07:36:15;;;;;;;14.60;12.00;;;9.40;99.90;;;;;;5043752;28;20063;-66
2021/10/08 07:38:41;;;;;;;16.60;12.90;;;9.50;99.90;;;;;;5050379;28;20041;-66
2021/10/08 07:41:08;;;;;;;16.35;11.77;;;9.60;99.90;;;;;;5046396;28;20021;-67
2021/10/08 07:43:36;;;;;;;13.43;11.15;;;9.60;99.90;;;;;;5042573;28;20495;-67
2021/10/08 07:46:04;;;;;;;17.35;12.77;;;9.70;99.90;;;;;;5030628;28;20029;-66
2021/10/08 07:48:29;;;;;;;16.90;11.98;;;9.80;99.90;;;;;;5030914;28;20044;-67
2021/10/08 07:50:55;;;;;;;15.00;11.65;;;9.90;99.90;;;;;;5030748;28;20631;-67
2021/10/08 07:53:21;;;;;;;14.70;12.07;;;10.00;99.90;;;;;;5049333;28;20056;-65
2021/10/08 07:55:47;;;;;;;19.67;13.95;;;10.10;99.90;;;;;;5049680;28;20780;-66
2021/10/08 07:58:12;;;;;;;15.93;12.75;;;10.30;99.90;;;;;;5050684;28;20037;-66
2021/10/08 08:00:38;;;;;;;17.05;12.43;;;10.50;99.90;;;;;;5050249;28;20028;-66
2021/10/08 08:03:04;;;;;;;14.52;12.88;;;10.50;99.90;;;;;;5032273;28;20033;-65
2021/10/08 08:05:29;;;;;;;13.75;11.63;;;10.60;99.90;;;;;;5050697;28;20025;-67
2021/10/08 08:07:55;;;;;;;15.80;12.05;;;10.70;99.90;;;;;;5049863;28;20682;-65
2021/10/08 08:10:22;;;;;;;14.65;10.98;;;10.80;99.90;;;;;;5041531;28;20045;-66
2021/10/08 08:12:48;;;;;;;18.40;12.52;;;10.80;99.90;;;;;;5046877;28;20107;-66
2021/10/08 08:15:14;;;;;;;16.35;11.45;;;11.00;99.90;;;;;;5049922;28;20112;-66
2021/10/08 08:17:40;;;;;;;13.60;11.43;;;11.10;99.90;;;;;;5050111;28;20445;-66
2021/10/08 08:20:08;;;;;;;18.55;11.95;;;11.30;99.90;;;;;;5058833;28;20146;-66
2021/10/08 08:22:34;;;;;;;18.73;12.15;;;11.30;99.90;;;;;;5036759;28;20385;-67
2021/10/08 08:24:59;;;;;;;17.95;11.80;;;11.50;99.90;;;;;;5033611;28;20033;-67
2021/10/08 08:27:25;;;;;;;13.35;11.50;;;11.60;99.90;;;;;;5030853;28;20021;-67
2021/10/08 08:29:50;;;;;;;14.02;11.85;;;11.70;99.90;;;;;;5032662;28;20025;-66
2021/10/08 08:32:16;;;;;;;15.35;10.77;;;11.70;99.90;;;;;;5031365;28;20025;-67
2021/10/08 08:34:42;;;;;;;14.05;11.18;;;11.80;99.90;;;;;;5039972;28;20037;-67
2021/10/08 08:37:08;;;;;;;13.43;10.05;;;11.90;99.90;;;;;;5035187;28;20029;-67
2021/10/08 08:39:37;;;;;;;17.45;11.27;;;11.90;99.90;;;;;;5034490;28;20049;-66
2021/10/08 08:42:03;;;;;;;14.30;11.30;;;11.90;99.90;;;;;;5044751;28;20123;-66
2021/10/08 08:44:29;;;;;;;13.38;10.48;;;12.10;99.90;;;;;;5052441;28;20088;-66
2021/10/08 08:46:58;;;;;;;14.60;11.52;;;12.10;99.90;;;;;;5045494;28;20099;-67
2021/10/08 08:49:25;;;;;;;15.30;11.70;;;12.00;99.90;;;;;;5034431;28;20113;-66
2021/10/08 08:51:51;;;;;;;13.82;10.88;;;12.10;99.90;;;;;;5040050;28;20038;-67
2021/10/08 08:54:18;;;;;;;14.18;11.13;;;12.00;99.90;;;;;;5047488;28;20071;-67
2021/10/08 08:56:43;;;;;;;12.25;9.20;;;12.10;99.90;;;;;;5041900;28;20381;-66
2021/10/08 08:59:12;;;;;;;14.00;9.50;;;12.20;99.90;;;;;;5042411;28;20028;-66
2021/10/08 09:01:58;;;;;;;12.63;10.05;;;12.30;99.90;;;;;;5042574;28;20051;-64
2021/10/08 09:04:28;;;;;;;12.57;10.63;;;12.50;99.90;;;;;;5041367;28;20421;-65
2021/10/08 09:06:54;;;;;;;12.68;10.48;;;12.80;99.90;;;;;;5033699;28;20045;-65
2021/10/08 09:09:21;;;;;;;15.88;9.80;;;13.00;99.90;;;;;;5045743;28;20045;-64
2021/10/08 09:11:53;;;;;;;14.15;9.55;;;13.20;99.90;;;;;;5050613;28;20478;-65
2021/10/08 09:14:19;;;;;;;13.55;10.35;;;13.20;99.90;;;;;;5042662;28;20083;-65
2021/10/08 09:17:10;;;;;;;13.13;8.98;;;13.40;99.90;;;;;;5033377;28;20017;-64
2021/10/08 09:20:03;;;;;;;11.50;8.88;;;13.50;99.90;;;;;;5051349;28;20461;-64
2021/10/08 09:22:49;;;;;;;15.20;10.48;;;13.60;99.90;;;;;;5059021;28;20656;-64
2021/10/08 09:25:33;;;;;;;11.70;10.02;;;13.70;99.90;;;;;;5034702;28;20040;-66
2021/10/08 09:28:02;;;;;;;10.43;8.95;;;13.80;99.90;;;;;;5034349;28;20628;-64
2021/10/08 09:30:49;;;;;;;13.93;9.95;;;13.80;99.90;;;;;;5048858;28;20087;-64
2021/10/08 09:33:29;;;;;;;16.70;10.25;;;14.00;99.90;;;;;;5049703;28;20428;-65
2021/10/08 09:35:56;;;;;;;;;;;14.10;99.90;;;;;;5033475;28;20501;-65
2021/10/08 09:38:23;;;;;;;15.63;9.70;;;14.00;99.90;;;;;;5033656;28;20003;-66
2021/10/08 09:40:52;;;;;;;13.02;9.18;;;14.00;99.90;;;;;;5048811;28;20082;-66
2021/10/08 09:43:25;;;;;;;11.95;8.95;;;14.00;99.90;;;;;;5035975;28;20022;-65
2021/10/08 09:45:54;;;;;;;11.38;9.85;;;14.10;99.90;;;;;;5047506;28;20033;-65
2021/10/08 09:48:25;;;;;;;12.75;9.77;;;14.10;99.90;;;;;;5053540;28;20032;-66
2021/10/08 09:51:08;;;;;;;12.75;9.93;;;14.10;99.90;;;;;;5050103;28;20549;-65
2021/10/08 09:53:52;;;;;;;13.55;10.30;;;14.00;99.90;;;;;;5033811;28;20486;-65
2021/10/08 09:56:57;;;;;;;12.40;9.52;;;14.00;99.90;;;;;;5026594;28;20346;-65
2021/10/08 09:59:38;;;;;;;12.65;9.73;;;14.00;99.90;;;;;;5036886;28;20042;-65
2021/10/08 10:02:05;;;;;;;11.10;8.88;;;14.00;99.90;;;;;;5042835;28;20029;-65
2021/10/08 10:04:47;;;;;;;10.75;9.57;;;14.00;99.90;;;;;;5052740;28;20029;-65
2021/10/08 10:07:38;;;;;;;14.40;10.13;;;14.00;99.90;;;;;;5051168;28;20091;-65
2021/10/08 10:10:04;;;;;;;14.73;9.75;;;14.10;99.90;;;;;;5038224;28;20056;-65
2021/10/08 10:12:34;;;;;;;10.75;8.93;;;14.10;99.90;;;;;;5046668;28;20099;-65
2021/10/08 10:15:00;;;;;;;10.60;8.75;;;14.20;99.90;;;;;;5045815;28;20029;-66
2021/10/08 10:17:25;;;;;;;13.88;9.55;;;14.20;99.90;;;;;;5053854;28;20040;-66
2021/10/08 10:19:51;;;;;;;15.93;10.25;;;14.30;99.90;;;;;;5048003;28;20025;-66
2021/10/08 10:22:20;;;;;;;10.60;9.07;;;14.40;99.90;;;;;;5021630;28;20040;-65
2021/10/08 10:24:47;;;;;;;12.95;10.10;;;14.40;99.90;;;;;;5042039;28;20079;-66
2021/10/08 10:27:17;;;;;;;11.05;9.02;;;14.50;99.90;;;;;;5052630;28;20029;-66
2021/10/08 10:29:44;;;;;;;;;;;14.50;99.90;;;;;;5050311;28;20032;-66
2021/10/08 10:32:10;;;;;;;12.55;8.63;;;14.60;99.90;;;;;;5035636;28;19909;-64
2021/10/08 10:34:38;;;;;;;13.55;9.93;;;14.70;99.90;;;;;;5032684;28;20059;-64
2021/10/08 10:37:05;;;;;;;15.30;9.68;;;14.90;99.90;;;;;;5043492;28;20025;-66
2021/10/08 10:39:30;;;;;;;11.35;8.48;;;14.90;99.90;;;;;;5047544;28;20040;-64
2021/10/08 10:42:13;;;;;;;13.00;8.63;;;15.10;99.90;;;;;;5047448;28;20021;-66
2021/10/08 10:44:40;;;;;;;11.63;8.77;;;15.10;99.90;;;;;;5042711;28;20034;-65
2021/10/08 10:47:20;;;;;;;10.75;8.98;;;15.10;99.90;;;;;;5051701;28;20035;-66
2021/10/08 10:49:55;;;;;;;11.50;8.93;;;15.20;99.90;;;;;;5038673;28;20364;-66
2021/10/08 10:52:25;;;;;;;14.10;9.23;;;15.20;99.90;;;;;;5032229;28;20017;-66
2021/10/08 10:54:53;;;;;;;;;;;15.30;99.90;;;;;;5032004;28;20065;-65
2021/10/08 10:57:32;;;;;;;13.63;8.23;;;15.30;99.90;;;;;;5035901;28;19992;-65
2021/10/08 11:00:20;;;;;;;11.98;8.98;;;15.50;99.90;;;;;;5051376;28;20040;-65
2021/10/08 11:02:46;;;;;;;11.02;8.48;;;15.70;99.90;;;;;;5031706;28;20032;-65
2021/10/08 11:05:20;;;;;;;10.85;8.52;;;15.70;99.90;;;;;;5033264;28;20097;-65
2021/10/08 11:08:19;;;;;;;10.32;7.85;;;15.70;99.90;;;;;;5040084;28;20059;-65
2021/10/08 11:11:07;;;;;;;12.35;8.07;;;15.50;99.90;;;;;;4998210;28;20557;-65
2021/10/08 11:13:34;;;;;;;12.80;8.60;;;15.40;99.90;;;;;;5043659;28;20116;-66
2021/10/08 11:16:02;;;;;;;12.50;9.25;;;15.40;99.90;;;;;;5047516;28;20037;-65
2021/10/08 11:18:41;;;;;;;14.73;8.85;;;15.50;99.90;;;;;;5037397;28;20084;-65
2021/10/08 11:21:09;;;;;;;14.93;8.80;;;15.60;99.90;;;;;;5031206;28;20033;-65
2021/10/08 11:23:36;;;;;;;14.60;8.88;;;15.70;99.90;;;;;;5031839;28;20458;-65
2021/10/08 11:26:14;;;;;;;15.73;8.90;;;15.70;99.90;;;;;;5037810;28;20028;-66
2021/10/08 11:28:43;;;;;;;11.75;8.52;;;15.90;99.90;;;;;;5049804;28;20381;-65
2021/10/08 11:31:14;;;;;;;10.57;8.23;;;15.90;99.90;;;;;;5035529;28;20033;-65
2021/10/08 11:33:46;;;;;;;15.02;9.70;;;16.00;99.90;;;;;;5032173;28;20470;-65
2021/10/08 11:36:22;;;;;;;11.35;8.70;;;16.10;99.90;;;;;;5017551;28;20025;-66
2021/10/08 11:38:53;;;;;;;12.38;9.18;;;16.00;99.90;;;;;;5051066;28;20044;-66
2021/10/08 11:41:24;;;;;;;12.73;8.77;;;16.10;99.90;;;;;;5037877;28;20033;-65
2021/10/08 11:44:12;;;;;;;14.70;8.45;;;16.20;99.90;;;;;;5048585;28;20025;-65
2021/10/08 11:46:57;;;;;;;13.15;8.48;;;16.20;99.90;;;;;;5051852;28;20053;-66
2021/10/08 11:51:58;;;;;;;11.77;8.23;;;16.00;99.90;;;;;;5033832;28;20025;-65
2021/10/08 11:54:24;;;;;;;12.57;8.93;;;15.80;99.90;;;;;;5051364;28;20040;-65
2021/10/08 11:57:04;;;;;;;10.95;8.45;;;15.80;99.90;;;;;;5050911;28;20063;-65
2021/10/08 11:59:33;;;;;;;13.23;9.20;;;15.80;99.90;;;;;;5031559;28;20099;-65
2021/10/08 12:02:13;;;;;;;12.70;9.15;;;15.80;99.90;;;;;;5040429;28;20037;-65
2021/10/08 12:04:57;;;;;;;14.88;9.00;;;15.80;99.90;;;;;;5046921;28;20033;-64
2021/10/08 12:07:22;;;;;;;15.05;9.43;;;15.70;99.90;;;;;;5038042;28;20052;-65
2021/10/08 12:10:14;;;;;;;11.55;7.63;;;15.50;99.90;;;;;;5042622;28;20045;-66
2021/10/08 12:12:55;;;;;;;12.68;8.25;;;15.40;99.90;;;;;;5049044;28;20033;-65
2021/10/08 12:15:42;;;;;;;11.18;8.48;;;15.40;99.90;;;;;;5055420;28;20112;-65
2021/10/08 12:18:14;;;;;;;11.45;9.18;;;15.40;99.90;;;;;;5057423;28;20033;-65
2021/10/08 12:20:41;;;;;;;12.10;9.35;;;15.50;99.90;;;;;;5075789;28;20121;-65
2021/10/08 12:23:23;;;;;;;13.10;8.80;;;15.50;99.90;;;;;;5062134;28;20427;-64
2021/10/08 12:25:52;;;;;;;12.15;8.55;;;15.50;99.90;;;;;;5049736;28;20094;-65
2021/10/08 12:28:23;;;;;;;9.98;8.40;;;15.60;99.90;;;;;;5038061;28;20034;-65
2021/10/08 12:31:02;;;;;;;13.10;7.75;;;15.40;99.90;;;;;;5037521;28;20021;-65
2021/10/08 12:33:42;;;;;;;11.98;8.57;;;15.50;99.90;;;;;;5038633;28;20355;-65
2021/10/08 12:36:16;;;;;;;12.70;9.75;;;15.50;99.90;;;;;;5042241;28;20277;-65
2021/10/08 12:39:11;;;;;;;14.30;9.07;;;15.60;99.90;;;;;;5040844;28;20045;-65
2021/10/08 12:41:45;;;;;;;12.45;9.20;;;15.50;99.90;;;;;;5041219;28;20108;-66
2021/10/08 12:44:19;;;;;;;15.38;9.35;;;15.50;99.90;;;;;;5054064;28;20021;-66
2021/10/08 12:47:06;;;;;;;14.23;10.07;;;15.50;99.90;;;;;;5056237;28;20037;-65
2021/10/08 12:49:46;;;;;;;13.30;8.93;;;15.60;99.90;;;;;;5058175;28;20035;-65